Time;durP1;ratioP1;P1;durP2;ratioP2;P2;SDS_P1;SDS_P2;PMS_P1;PMS_P2;Temp;Humidity;BMP_temperature;BMP_pressure;BME280_temperature;BME280_humidity;BME280_pressure;Samples;Min_cycle;Max_cycle;Signal;HPM_P1;HPM_P2
2022/04/15 00:01:12;;;;;;;3.53;2.83;;;11.60;99.90;;;;;;4968999;28;20681;-71
2022/04/15 00:03:39;;;;;;;2.70;2.50;;;11.60;99.90;;;;;;4970271;28;20250;-70
2022/04/15 00:06:08;;;;;;;9.70;2.83;;;11.60;99.90;;;;;;4973644;28;20172;-70
2022/04/15 00:08:34;;;;;;;3.53;3.13;;;11.60;99.90;;;;;;4969045;28;20837;-71
2022/04/15 00:11:00;;;;;;;3.23;3.00;;;11.60;99.90;;;;;;4973305;28;20802;-71
2022/04/15 00:13:29;;;;;;;4.60;2.23;;;11.60;99.90;;;;;;4969947;28;20486;-71
2022/04/15 00:15:59;;;;;;;2.57;2.37;;;11.60;99.90;;;;;;4973263;28;20229;-71
2022/04/15 00:18:25;;;;;;;3.70;2.60;;;11.60;99.90;;;;;;4972218;28;20431;-71
2022/04/15 00:20:52;;;;;;;4.90;3.23;;;11.60;99.90;;;;;;4971654;28;20443;-71
2022/04/15 00:23:18;;;;;;;15.90;2.90;;;11.60;99.90;;;;;;4972101;28;21004;-71
2022/04/15 00:25:44;;;;;;;4.40;2.73;;;11.60;99.90;;;;;;4971923;28;20431;-70
2022/04/15 00:28:10;;;;;;;6.23;3.60;;;11.60;99.90;;;;;;4968996;28;20549;-71
2022/04/15 00:30:35;;;;;;;2.80;2.40;;;11.60;99.90;;;;;;4970739;28;20921;-71
2022/04/15 00:33:01;;;;;;;3.10;2.50;;;11.60;99.90;;;;;;4972930;28;20204;-71
2022/04/15 00:35:26;;;;;;;2.60;2.40;;;11.60;99.90;;;;;;4971894;28;20234;-71
2022/04/15 00:37:52;;;;;;;15.03;3.20;;;11.70;99.90;;;;;;4973108;28;20665;-71
2022/04/15 00:40:17;;;;;;;3.83;2.77;;;11.70;99.90;;;;;;4970421;28;20187;-71
2022/04/15 00:42:43;;;;;;;2.27;2.00;;;11.70;99.90;;;;;;4967251;28;20223;-71
2022/04/15 00:45:12;;;;;;;5.50;2.63;;;11.60;99.90;;;;;;4968759;28;20608;-70
2022/04/15 00:47:46;;;;;;;3.57;2.40;;;11.50;99.90;;;;;;4972807;28;20204;-71
2022/04/15 00:50:12;;;;;;;4.77;3.10;;;11.60;99.90;;;;;;4971639;28;20471;-71
2022/04/15 00:52:43;;;;;;;3.60;3.30;;;11.50;99.90;;;;;;4969452;28;20856;-71
2022/04/15 00:55:10;;;;;;;7.77;3.07;;;11.50;99.90;;;;;;4972411;28;20435;-70
2022/04/15 00:57:39;;;;;;;5.03;3.23;;;11.50;99.90;;;;;;4969186;28;20447;-71
2022/04/15 02:30:50;;;;;;;5.40;2.80;;;10.70;99.90;;;;;;6070371;23;20400;-74
2022/04/15 02:33:16;;;;;;;3.77;3.10;;;10.70;99.90;;;;;;4984422;28;20450;-71
2022/04/15 02:35:41;;;;;;;2.87;2.67;;;10.70;99.90;;;;;;4986944;28;20238;-71
2022/04/15 02:38:07;;;;;;;5.60;3.30;;;10.70;99.90;;;;;;4994485;28;20787;-71
2022/04/15 02:40:33;;;;;;;8.30;2.70;;;10.70;99.90;;;;;;4991107;28;20596;-70
2022/04/15 02:43:00;;;;;;;4.67;3.50;;;10.60;99.90;;;;;;4972867;28;20446;-70
2022/04/15 02:45:28;;;;;;;3.10;2.80;;;10.70;99.90;;;;;;4973510;28;20183;-70
2022/04/15 02:47:53;;;;;;;3.60;2.63;;;10.60;99.90;;;;;;4957273;28;20466;-71
2022/04/15 02:50:19;;;;;;;3.13;2.70;;;10.60;99.90;;;;;;4955731;29;20431;-71
2022/04/15 02:52:45;;;;;;;5.40;2.43;;;10.60;99.90;;;;;;4957194;28;20298;-72
2022/04/15 02:55:10;;;;;;;3.40;2.97;;;10.50;99.90;;;;;;4956057;29;20983;-69
2022/04/15 02:57:36;;;;;;;2.83;2.43;;;10.50;99.90;;;;;;4960655;28;20238;-70
2022/04/15 03:00:02;;;;;;;4.30;2.70;;;10.50;99.90;;;;;;4955558;29;20230;-70
2022/04/15 03:02:31;;;;;;;5.03;2.77;;;10.40;99.90;;;;;;4955729;28;20680;-71
2022/04/15 03:04:56;;;;;;;3.57;3.10;;;10.40;99.90;;;;;;4956656;28;20931;-70
2022/04/15 03:07:22;;;;;;;7.40;3.47;;;10.30;99.90;;;;;;4955828;28;20474;-72
2022/04/15 03:09:47;;;;;;;2.73;1.93;;;10.30;99.90;;;;;;4955579;29;20184;-70
2022/04/15 03:12:13;;;;;;;5.33;3.70;;;10.30;99.90;;;;;;4956028;28;20211;-72
2022/04/15 03:14:39;;;;;;;2.80;2.60;;;10.30;99.90;;;;;;4967699;28;20187;-71
2022/04/15 03:17:05;;;;;;;3.90;2.93;;;10.30;99.90;;;;;;4974698;28;20418;-72
2022/04/15 03:19:31;;;;;;;4.90;2.87;;;10.30;99.90;;;;;;4958683;28;20184;-70
2022/04/15 03:21:57;;;;;;;2.90;2.70;;;10.20;99.90;;;;;;4955175;28;20438;-70
2022/04/15 03:24:22;;;;;;;3.73;3.10;;;10.20;99.90;;;;;;4956638;28;20196;-70
2022/04/15 03:26:48;;;;;;;4.80;2.83;;;10.20;99.90;;;;;;4955308;28;20203;-73
2022/04/15 03:29:13;;;;;;;6.00;3.13;;;10.20;99.90;;;;;;4956542;28;20271;-71
2022/04/15 03:31:39;;;;;;;7.33;3.10;;;10.20;99.90;;;;;;4954722;29;20640;-71
2022/04/15 03:34:04;;;;;;;9.83;3.37;;;10.20;99.90;;;;;;4956321;28;20200;-71
2022/04/15 03:36:30;;;;;;;4.40;2.43;;;10.10;99.90;;;;;;4955068;28;20260;-71
2022/04/15 03:38:55;;;;;;;5.03;2.90;;;10.10;99.90;;;;;;4954586;28;20259;-73
2022/04/15 03:41:22;;;;;;;6.33;2.87;;;10.10;99.90;;;;;;4955962;28;20202;-71
2022/04/15 03:43:48;;;;;;;4.27;2.40;;;10.10;99.90;;;;;;4957803;28;20195;-70
2022/04/15 03:46:14;;;;;;;3.70;3.40;;;10.10;99.90;;;;;;4954870;28;20531;-71
2022/04/15 03:48:39;;;;;;;4.70;2.97;;;10.00;99.90;;;;;;4954310;28;20459;-71
2022/04/15 03:51:05;;;;;;;3.50;2.57;;;9.90;99.90;;;;;;4954893;28;20205;-71
2022/04/15 03:53:30;;;;;;;5.43;3.37;;;9.90;99.90;;;;;;4954790;29;20263;-71
2022/04/15 03:55:56;;;;;;;4.63;2.67;;;9.90;99.90;;;;;;4955268;28;20196;-72
2022/04/15 03:58:21;;;;;;;2.60;2.50;;;9.80;99.90;;;;;;4959632;28;20327;-72
2022/04/15 04:00:47;;;;;;;4.20;3.70;;;9.80;99.90;;;;;;4955143;28;20191;-71
2022/04/15 04:03:14;;;;;;;3.83;3.17;;;9.80;99.90;;;;;;4954778;28;20195;-71
2022/04/15 04:05:40;;;;;;;4.03;3.70;;;9.80;99.90;;;;;;4955086;28;20175;-73
2022/04/15 04:08:06;;;;;;;5.67;3.83;;;9.80;99.90;;;;;;4965221;28;20533;-71
2022/04/15 04:10:33;;;;;;;3.47;2.87;;;9.80;99.90;;;;;;4957273;28;20434;-70
2022/04/15 04:12:59;;;;;;;7.33;4.07;;;9.70;99.90;;;;;;4957563;28;20459;-71
2022/04/15 04:15:24;;;;;;;4.07;3.67;;;9.70;99.90;;;;;;4954933;28;20455;-71
2022/04/15 04:17:50;;;;;;;3.23;3.03;;;9.60;99.90;;;;;;4956338;28;20222;-71
2022/04/15 04:20:18;;;;;;;5.77;2.87;;;9.60;99.90;;;;;;4955018;28;20215;-71
2022/04/15 04:22:44;;;;;;;3.50;3.20;;;9.60;99.90;;;;;;4957082;28;20265;-71
2022/04/15 04:25:10;;;;;;;3.60;3.30;;;9.50;99.90;;;;;;4955226;29;20415;-70
2022/04/15 04:27:43;;;;;;;6.77;3.60;;;9.50;99.90;;;;;;4955629;28;20587;-70
2022/04/15 04:30:12;;;;;;;4.47;3.40;;;9.50;99.90;;;;;;4955978;28;20500;-70
2022/04/15 04:32:38;;;;;;;11.00;3.40;;;9.50;99.90;;;;;;4954443;28;20454;-70
2022/04/15 04:35:04;;;;;;;8.87;4.33;;;9.50;99.90;;;;;;4955079;28;20438;-71
2022/04/15 04:37:30;;;;;;;2.67;2.33;;;9.50;99.90;;;;;;4954218;29;20185;-71
2022/04/15 04:39:55;;;;;;;3.80;3.50;;;9.50;99.90;;;;;;4963719;28;20434;-70
2022/04/15 04:42:22;;;;;;;7.40;4.10;;;9.50;99.90;;;;;;4954499;28;20223;-70
2022/04/15 04:44:48;;;;;;;3.77;3.47;;;9.50;99.90;;;;;;4956950;28;20202;-69
2022/04/15 04:47:14;;;;;;;4.60;4.20;;;9.50;99.90;;;;;;4953922;29;20463;-70
2022/04/15 04:49:40;;;;;;;6.83;3.47;;;9.50;99.90;;;;;;4954354;28;20482;-70
2022/04/15 04:52:06;;;;;;;3.93;3.60;;;9.50;99.90;;;;;;4954230;28;20597;-70
2022/04/15 04:54:32;;;;;;;4.30;2.97;;;9.50;99.90;;;;;;4956011;28;20191;-70
2022/04/15 04:56:58;;;;;;;6.83;3.50;;;9.60;99.90;;;;;;4954071;28;20439;-71
2022/04/15 04:59:29;;;;;;;3.60;3.30;;;9.70;99.90;;;;;;4954689;28;20435;-71
2022/04/15 05:01:54;;;;;;;4.10;3.70;;;9.80;99.90;;;;;;4963556;28;20453;-71
2022/04/15 05:04:20;;;;;;;5.57;3.57;;;9.90;99.90;;;;;;4953366;28;20423;-71
2022/04/15 05:06:45;;;;;;;5.43;4.00;;;9.90;99.90;;;;;;4953574;28;20184;-74
2022/04/15 05:09:11;;;;;;;4.20;3.27;;;10.00;99.90;;;;;;4961870;28;20206;-71
2022/04/15 05:11:36;;;;;;;4.43;4.03;;;10.10;99.90;;;;;;4954582;28;20286;-71
2022/04/15 05:14:02;;;;;;;9.33;4.10;;;10.20;99.90;;;;;;4957413;28;20285;-71
2022/04/15 05:16:27;;;;;;;3.33;3.13;;;10.20;99.90;;;;;;4954086;28;20195;-71
2022/04/15 05:18:53;;;;;;;6.10;3.77;;;10.40;99.90;;;;;;4953514;28;20214;-72
2022/04/15 05:21:18;;;;;;;4.57;4.10;;;10.50;99.90;;;;;;4953482;28;20219;-72
2022/04/15 05:23:47;;;;;;;4.00;3.70;;;10.70;99.90;;;;;;4954200;28;20220;-72
2022/04/15 05:26:14;;;;;;;7.90;3.40;;;10.90;99.90;;;;;;4953011;29;20176;-72
2022/04/15 05:28:41;;;;;;;4.00;3.47;;;11.40;99.90;;;;;;4955599;28;20555;-72
2022/04/15 05:31:07;;;;;;;4.60;3.13;;;11.90;99.90;;;;;;4952700;28;20810;-73
2022/04/15 05:33:33;;;;;;;3.90;3.60;;;12.30;99.90;;;;;;4954659;28;20449;-72
2022/04/15 05:35:58;;;;;;;3.50;3.20;;;13.00;99.90;;;;;;4953274;29;20419;-72
2022/04/15 05:38:24;;;;;;;4.70;2.90;;;14.00;99.90;;;;;;4953787;28;20227;-72
2022/04/15 05:40:50;;;;;;;3.90;3.50;;;14.90;99.90;;;;;;4952926;29;20193;-72
2022/04/15 05:43:15;;;;;;;8.90;3.53;;;15.60;99.90;;;;;;4955864;28;20211;-72
2022/04/15 05:45:42;;;;;;;3.70;2.80;;;16.40;99.90;;;;;;4953227;29;20173;-72
2022/04/15 05:48:07;;;;;;;4.07;3.67;;;17.00;99.90;;;;;;4953574;28;20507;-72
2022/04/15 05:50:33;;;;;;;3.23;2.93;;;17.40;99.90;;;;;;4952899;28;20456;-72
2022/04/15 05:52:59;;;;;;;8.20;2.97;;;17.30;99.90;;;;;;4952947;28;20197;-72
2022/04/15 05:55:24;;;;;;;3.93;3.20;;;17.60;99.90;;;;;;4954361;28;20614;-73
2022/04/15 05:57:50;;;;;;;3.30;3.10;;;17.50;99.90;;;;;;4953867;28;20276;-73
2022/04/15 06:00:15;;;;;;;4.97;3.43;;;17.50;99.90;;;;;;4953442;28;20189;-72
2022/04/15 06:02:41;;;;;;;3.60;3.30;;;17.80;99.90;;;;;;4952793;29;20201;-73
2022/04/15 06:05:07;;;;;;;3.93;3.63;;;18.30;99.90;;;;;;4953197;28;20243;-74
2022/04/15 06:07:32;;;;;;;4.93;3.90;;;18.40;99.90;;;;;;4957128;28;20217;-73
2022/04/15 06:09:58;;;;;;;5.67;4.63;;;18.60;99.90;;;;;;4955055;28;20449;-73
2022/04/15 06:12:54;;;;;;;5.33;4.83;;;17.60;99.90;;;;;;4955465;28;20203;-73
2022/04/15 06:15:18;;;;;;;5.23;4.73;;;17.00;99.90;;;;;;4956838;28;20185;-73
2022/04/15 06:17:43;;;;;;;5.93;4.83;;;16.70;99.90;;;;;;4957171;28;20800;-72
2022/04/15 06:20:10;;;;;;;9.77;4.93;;;16.50;99.90;;;;;;4955722;28;20184;-72
2022/04/15 06:22:36;;;;;;;9.10;4.40;;;17.00;99.90;;;;;;4956709;28;20215;-72
2022/04/15 06:25:02;;;;;;;4.63;4.23;;;17.70;99.90;;;;;;4956099;28;20959;-72
2022/04/15 06:27:27;;;;;;;5.93;4.73;;;18.20;99.90;;;;;;4966599;28;20475;-73
2022/04/15 06:29:53;;;;;;;9.73;5.47;;;18.70;99.90;;;;;;4960700;28;20658;-72
2022/04/15 06:32:18;;;;;;;9.20;6.07;;;19.20;99.90;;;;;;4959060;28;20268;-72
2022/04/15 06:34:44;;;;;;;6.13;5.63;;;19.90;99.90;;;;;;4964143;28;20185;-73
2022/04/15 06:37:10;;;;;;;11.87;7.77;;;20.10;99.90;;;;;;4959145;28;20185;-72
2022/04/15 06:39:35;;;;;;;12.70;10.23;;;20.40;99.90;;;;;;4957348;28;20189;-73
2022/04/15 06:42:01;;;;;;;14.50;10.20;;;20.10;99.90;;;;;;4956867;28;20311;-72
2022/04/15 06:44:30;;;;;;;15.13;11.43;;;20.20;99.90;;;;;;4960992;28;20273;-72
2022/04/15 06:46:56;;;;;;;15.43;11.50;;;20.10;99.90;;;;;;4957091;28;20757;-72
2022/04/15 06:49:21;;;;;;;16.63;11.43;;;20.10;99.90;;;;;;4962023;28;20483;-73
2022/04/15 06:51:47;;;;;;;13.63;10.93;;;20.30;99.90;;;;;;4958600;29;20207;-72
2022/04/15 06:54:13;;;;;;;13.53;11.77;;;20.20;99.90;;;;;;4961894;28;20244;-73
2022/04/15 06:56:39;;;;;;;14.80;11.47;;;20.10;99.90;;;;;;4959480;28;20212;-74
2022/04/15 06:59:05;;;;;;;15.67;12.43;;;20.00;99.90;;;;;;4975242;28;20192;-73
2022/04/15 07:01:32;;;;;;;15.63;11.50;;;20.20;99.90;;;;;;4958705;28;20197;-72
2022/04/15 07:03:58;;;;;;;18.70;11.77;;;20.40;99.90;;;;;;4959371;28;20439;-73
2022/04/15 07:06:24;;;;;;;18.90;13.23;;;20.40;99.90;;;;;;4958535;28;20491;-74
2022/04/15 07:08:50;;;;;;;15.60;11.77;;;20.30;99.90;;;;;;4977595;28;20224;-72
2022/04/15 07:11:18;;;;;;;13.30;11.67;;;20.10;99.90;;;;;;4976459;28;21158;-73
2022/04/15 07:13:44;;;;;;;17.77;10.60;;;20.10;99.90;;;;;;4974599;28;20562;-72
2022/04/15 07:16:10;;;;;;;18.03;11.40;;;20.30;99.90;;;;;;4970777;28;20444;-73
2022/04/15 07:18:36;;;;;;;13.80;11.23;;;20.20;99.90;;;;;;4959562;28;20185;-72
2022/04/15 07:21:01;;;;;;;15.40;12.63;;;20.40;99.90;;;;;;4960587;28;20242;-73
2022/04/15 07:23:27;;;;;;;15.07;12.10;;;20.50;99.90;;;;;;4956323;28;20181;-73
2022/04/15 07:25:53;;;;;;;13.80;11.73;;;20.60;99.90;;;;;;4958201;28;20192;-73
2022/04/15 07:28:19;;;;;;;13.70;12.00;;;20.70;99.90;;;;;;4959573;28;20223;-73
2022/04/15 07:30:45;;;;;;;12.23;10.93;;;21.10;99.90;;;;;;4971581;28;20748;-73
2022/04/15 07:33:11;;;;;;;16.60;13.07;;;21.20;99.90;;;;;;4971690;28;20204;-74
2022/04/15 07:35:36;;;;;;;13.43;11.87;;;21.30;99.90;;;;;;4956263;28;20553;-73
2022/04/15 07:38:02;;;;;;;15.77;12.07;;;21.40;99.90;;;;;;4957552;28;20196;-73
2022/04/15 07:40:29;;;;;;;23.23;13.90;;;21.50;99.90;;;;;;4955035;29;20661;-72
2022/04/15 07:42:57;;;;;;;19.80;14.37;;;21.70;99.90;;;;;;4959919;28;20232;-72
2022/04/15 07:45:23;;;;;;;14.13;12.63;;;21.50;99.90;;;;;;4954768;28;20420;-73
2022/04/15 07:47:49;;;;;;;16.53;12.90;;;21.50;99.90;;;;;;4955869;28;20838;-73
2022/04/15 07:50:14;;;;;;;14.17;12.70;;;21.50;99.90;;;;;;4955175;29;20416;-73
2022/04/15 07:52:40;;;;;;;19.93;14.17;;;21.60;99.90;;;;;;4955096;28;20633;-73
2022/04/15 07:55:06;;;;;;;20.23;13.97;;;22.10;99.90;;;;;;4971527;28;20653;-73
2022/04/15 07:57:34;;;;;;;16.23;13.00;;;21.90;99.90;;;;;;4971102;28;20295;-73
2022/04/15 07:59:59;;;;;;;22.20;15.30;;;21.80;99.90;;;;;;4954532;28;20433;-73
2022/04/15 08:02:25;;;;;;;17.10;14.00;;;22.10;99.90;;;;;;4953982;29;20439;-73
2022/04/15 08:04:51;;;;;;;15.90;13.90;;;22.20;99.90;;;;;;4963216;28;20185;-73
2022/04/15 08:07:17;;;;;;;19.87;14.97;;;22.20;99.90;;;;;;4969720;28;20550;-73
2022/04/15 08:09:43;;;;;;;14.53;13.03;;;21.90;99.90;;;;;;4955396;28;20192;-73
2022/04/15 08:12:09;;;;;;;16.97;12.53;;;21.90;99.90;;;;;;4953902;28;20452;-73
2022/04/15 08:14:35;;;;;;;19.03;14.23;;;22.20;99.90;;;;;;4956048;28;20176;-73
2022/04/15 08:17:00;;;;;;;15.70;14.10;;;22.60;99.90;;;;;;4954556;29;20830;-73
2022/04/15 08:19:26;;;;;;;16.03;14.27;;;23.10;99.90;;;;;;4954859;28;20189;-73
2022/04/15 08:21:51;;;;;;;16.17;14.47;;;23.10;99.90;;;;;;4953904;29;20204;-73
2022/04/15 08:24:17;;;;;;;15.83;12.33;;;23.30;99.90;;;;;;4954595;28;20192;-73
2022/04/15 08:26:44;;;;;;;14.87;12.87;;;23.70;99.90;;;;;;4953968;28;20244;-74
2022/04/15 08:29:10;;;;;;;17.03;13.83;;;24.00;99.90;;;;;;4954523;28;20208;-73
2022/04/15 08:31:36;;;;;;;15.23;13.20;;;24.20;99.90;;;;;;4954524;28;20562;-73
2022/04/15 08:34:02;;;;;;;17.10;13.90;;;24.30;99.90;;;;;;4953833;28;20196;-73
2022/04/15 08:36:27;;;;;;;18.23;15.30;;;24.30;99.90;;;;;;4954831;28;20598;-73
2022/04/15 08:38:53;;;;;;;15.00;13.10;;;23.90;99.90;;;;;;4954113;29;20421;-73
2022/04/15 08:41:21;;;;;;;16.47;14.70;;;23.90;99.90;;;;;;4954701;28;20216;-73
2022/04/15 08:43:47;;;;;;;16.30;13.77;;;23.60;99.90;;;;;;4954927;28;20192;-73
2022/04/15 08:46:12;;;;;;;18.90;13.93;;;23.70;99.90;;;;;;4955214;28;20444;-73
2022/04/15 08:48:39;;;;;;;18.67;13.67;;;24.20;99.90;;;;;;4954719;28;20590;-74
2022/04/15 08:51:06;;;;;;;15.03;13.47;;;24.60;99.90;;;;;;4953867;28;20193;-74
2022/04/15 08:53:34;;;;;;;17.10;15.40;;;24.60;99.90;;;;;;4954298;28;20967;-73
2022/04/15 08:56:01;;;;;;;14.83;13.33;;;24.90;99.90;;;;;;4953509;29;20427;-73
2022/04/15 08:58:29;;;;;;;15.80;14.30;;;25.00;99.90;;;;;;4958620;28;20447;-73
2022/04/15 09:00:55;;;;;;;18.23;16.53;;;24.90;99.90;;;;;;4953268;28;20416;-74
2022/04/15 09:03:20;;;;;;;21.43;15.60;;;24.80;99.90;;;;;;4954857;28;20941;-73
2022/04/15 09:05:52;;;;;;;21.47;17.00;;;24.40;99.90;;;;;;4953479;29;20243;-73
2022/04/15 09:08:18;;;;;;;15.87;14.37;;;24.20;99.90;;;;;;4954693;28;20215;-73
2022/04/15 09:10:55;;;;;;;16.50;14.83;;;23.80;99.90;;;;;;4953255;28;20408;-73
2022/04/15 09:13:23;;;;;;;17.40;15.13;;;23.80;99.90;;;;;;4954043;28;20287;-73
2022/04/15 09:15:49;;;;;;;20.17;16.30;;;24.00;99.90;;;;;;4955057;29;20475;-73
2022/04/15 09:18:28;;;;;;;16.13;14.63;;;23.80;99.90;;;;;;4958555;28;20443;-73
2022/04/15 09:21:18;;;;;;;17.87;16.17;;;23.70;99.90;;;;;;4954831;28;20657;-73
2022/04/15 09:23:45;;;;;;;16.17;14.50;;;22.90;99.90;;;;;;4954264;28;20971;-73
2022/04/15 09:26:11;;;;;;;19.47;17.50;;;22.80;99.90;;;;;;4953314;29;20436;-73
2022/04/15 09:28:37;;;;;;;17.80;15.90;;;23.40;99.90;;;;;;4953678;28;20475;-74
2022/04/15 09:31:02;;;;;;;16.80;15.07;;;23.60;99.90;;;;;;4953524;28;20307;-73
2022/04/15 09:33:29;;;;;;;17.20;15.43;;;24.00;99.90;;;;;;4953398;29;20185;-73
2022/04/15 09:35:55;;;;;;;17.63;15.93;;;24.00;99.90;;;;;;4954044;28;20176;-73
2022/04/15 09:38:40;;;;;;;16.80;15.10;;;23.70;99.90;;;;;;4953093;28;20423;-73
2022/04/15 09:41:19;;;;;;;15.63;14.13;;;23.10;99.90;;;;;;4953722;28;20833;-73
2022/04/15 09:44:02;;;;;;;16.13;14.53;;;23.00;99.90;;;;;;4953983;28;20940;-73
2022/04/15 09:46:30;;;;;;;16.53;14.60;;;23.70;99.90;;;;;;4954586;28;20440;-74
2022/04/15 09:49:06;;;;;;;15.27;13.73;;;24.30;99.90;;;;;;4957091;29;20483;-73
2022/04/15 09:51:52;;;;;;;17.60;15.80;;;24.80;99.90;;;;;;4957811;28;20455;-73
2022/04/15 09:54:23;;;;;;;17.53;15.80;;;25.10;99.90;;;;;;4956651;29;20423;-73
2022/04/15 09:56:50;;;;;;;14.23;12.93;;;25.40;99.90;;;;;;4957480;28;20440;-73
2022/04/15 09:59:18;;;;;;;14.07;12.40;;;25.50;99.90;;;;;;4957398;28;20450;-73
2022/04/15 10:01:47;;;;;;;17.00;13.80;;;25.30;99.90;;;;;;4957106;28;20555;-73
2022/04/15 10:04:14;;;;;;;15.23;13.67;;;25.30;99.90;;;;;;4957865;28;20498;-73
2022/04/15 10:06:42;;;;;;;15.87;14.20;;;25.10;99.90;;;;;;4958968;28;20435;-73
2022/04/15 10:09:14;;;;;;;13.47;12.07;;;24.80;99.90;;;;;;4959913;28;20475;-73
2022/04/15 10:11:45;;;;;;;23.03;15.40;;;24.80;99.90;;;;;;4956051;28;20443;-73
2022/04/15 10:14:12;;;;;;;15.70;13.70;;;24.10;99.90;;;;;;4960691;28;20499;-73
2022/04/15 10:16:39;;;;;;;16.03;14.13;;;23.70;99.90;;;;;;4956368;29;20447;-73
2022/04/15 10:19:05;;;;;;;15.33;13.90;;;23.10;99.90;;;;;;4956753;28;20448;-73
2022/04/15 10:21:34;;;;;;;17.10;13.87;;;22.60;99.90;;;;;;4956219;28;20866;-73
2022/04/15 10:24:01;;;;;;;15.10;13.47;;;22.40;99.90;;;;;;4957411;28;20435;-73
2022/04/15 10:26:31;;;;;;;16.67;13.87;;;22.80;99.90;;;;;;4956310;29;20417;-73
2022/04/15 10:29:03;;;;;;;15.97;14.33;;;22.70;99.90;;;;;;4956825;28;20476;-73
2022/04/15 10:31:46;;;;;;;16.53;12.70;;;23.00;99.90;;;;;;4955778;28;20507;-73
2022/04/15 10:34:16;;;;;;;15.00;13.20;;;23.80;99.90;;;;;;4956366;28;20433;-73
2022/04/15 10:36:53;;;;;;;16.50;11.47;;;24.30;99.90;;;;;;4974634;28;20426;-73
2022/04/15 10:39:24;;;;;;;14.40;12.43;;;24.80;99.90;;;;;;4970100;28;20451;-73
2022/04/15 10:42:01;;;;;;;13.47;12.17;;;24.80;99.90;;;;;;4955932;29;20471;-73
2022/04/15 10:44:39;;;;;;;15.33;12.80;;;24.70;99.90;;;;;;4957379;28;20442;-73
2022/04/15 10:47:10;;;;;;;12.93;11.13;;;24.50;99.90;;;;;;4955787;29;20416;-73
2022/04/15 10:49:39;;;;;;;12.53;11.17;;;23.70;99.90;;;;;;4956543;28;20439;-73
2022/04/15 10:52:26;;;;;;;13.63;12.00;;;23.40;99.90;;;;;;4955497;28;20444;-73
2022/04/15 10:55:08;;;;;;;11.57;9.67;;;23.40;99.90;;;;;;4956318;28;20413;-73
2022/04/15 10:57:43;;;;;;;12.90;11.50;;;23.90;99.90;;;;;;4955665;28;20447;-72
2022/04/15 11:03:31;;;;;;;13.13;11.17;;;24.30;99.90;;;;;;4955406;29;20496;-73
2022/04/15 11:06:02;;;;;;;12.60;10.53;;;24.30;99.90;;;;;;4959545;28;20470;-73
2022/04/15 11:08:29;;;;;;;11.97;10.67;;;23.80;99.90;;;;;;4967269;28;20475;-73
2022/04/15 11:10:55;;;;;;;11.10;9.73;;;23.00;99.90;;;;;;4956309;28;20515;-73
2022/04/15 11:13:27;;;;;;;10.13;9.13;;;22.40;99.90;;;;;;4956134;28;20440;-73
2022/04/15 11:15:57;;;;;;;11.90;10.67;;;22.30;99.90;;;;;;4955231;29;20165;-73
2022/04/15 11:18:22;;;;;;;14.70;13.17;;;22.50;99.90;;;;;;4956619;28;20515;-73
2022/04/15 11:20:48;;;;;;;14.13;12.37;;;22.60;99.90;;;;;;4955139;29;20420;-73
2022/04/15 11:23:14;;;;;;;15.43;11.30;;;23.00;99.90;;;;;;4960393;28;20267;-73
2022/04/15 11:25:44;;;;;;;17.57;10.77;;;22.80;99.90;;;;;;4957629;28;20431;-73
2022/04/15 11:28:09;;;;;;;15.13;12.03;;;22.70;99.90;;;;;;4959965;28;20466;-73
2022/04/15 11:30:35;;;;;;;12.43;11.10;;;22.60;99.90;;;;;;4954805;28;20786;-73
2022/04/15 11:33:06;;;;;;;13.00;11.60;;;22.60;99.90;;;;;;4955411;28;20209;-73
2022/04/15 11:35:34;;;;;;;13.13;11.80;;;22.20;99.90;;;;;;4955022;29;21009;-73
2022/04/15 11:38:05;;;;;;;14.10;11.83;;;21.90;99.90;;;;;;4955679;28;20444;-74
2022/04/15 11:40:36;;;;;;;16.47;11.10;;;21.60;99.90;;;;;;4954973;28;20803;-73
2022/04/15 11:43:05;;;;;;;13.00;11.27;;;21.60;99.90;;;;;;4955225;28;20462;-73
2022/04/15 11:45:42;;;;;;;10.87;9.40;;;21.90;99.90;;;;;;4955130;28;20428;-73
2022/04/15 11:48:21;;;;;;;13.53;10.80;;;22.10;99.90;;;;;;4954568;29;20467;-73
2022/04/15 11:50:49;;;;;;;15.13;10.30;;;22.50;99.90;;;;;;4956409;28;20440;-73
2022/04/15 11:53:15;;;;;;;11.47;10.17;;;22.40;99.90;;;;;;4954550;29;20492;-73
2022/04/15 11:56:07;;;;;;;13.10;9.43;;;22.20;99.90;;;;;;4955130;28;21003;-73
2022/04/15 11:58:34;;;;;;;12.97;10.27;;;21.90;99.90;;;;;;4954238;28;20282;-73
2022/04/15 12:01:01;;;;;;;13.30;9.57;;;21.90;99.90;;;;;;4954669;28;20471;-73
2022/04/15 12:03:28;;;;;;;12.23;10.30;;;21.80;99.90;;;;;;4954777;29;20499;-74
2022/04/15 12:05:56;;;;;;;11.40;10.27;;;21.60;99.90;;;;;;4954756;28;20941;-73
2022/04/15 12:08:22;;;;;;;14.90;12.03;;;21.50;99.90;;;;;;4954656;28;20566;-73
2022/04/15 12:10:49;;;;;;;12.10;10.77;;;21.50;99.90;;;;;;4955157;28;20527;-74
2022/04/15 12:13:16;;;;;;;14.10;9.60;;;21.50;99.90;;;;;;4954928;28;20208;-73
2022/04/15 12:15:43;;;;;;;14.37;11.10;;;21.60;99.90;;;;;;4954994;28;20791;-73
2022/04/15 12:18:10;;;;;;;14.43;10.67;;;21.50;99.90;;;;;;4954457;28;20419;-73
2022/04/15 12:20:38;;;;;;;12.27;10.30;;;21.50;99.90;;;;;;4953821;28;20423;-72
2022/04/15 12:23:05;;;;;;;14.50;9.80;;;21.50;99.90;;;;;;4956313;28;20436;-73
2022/04/15 12:30:59;;;;;;;11.13;7.67;;;21.40;99.90;;;;;;4953688;29;20505;-73
2022/04/15 12:33:24;;;;;;;8.93;6.10;;;21.60;99.90;;;;;;4955290;28;20439;-73
2022/04/15 12:36:01;;;;;;;7.60;6.70;;;21.90;99.90;;;;;;4952362;29;20180;-73
2022/04/15 12:38:27;;;;;;;8.30;7.40;;;22.00;99.90;;;;;;4954300;28;20290;-73
2022/04/15 12:40:59;;;;;;;6.83;6.17;;;21.70;99.90;;;;;;4953534;28;20452;-73
2022/04/15 12:43:24;;;;;;;8.03;6.60;;;21.40;99.90;;;;;;4957844;28;20197;-73
2022/04/15 12:45:53;;;;;;;8.33;5.60;;;21.50;99.90;;;;;;4954233;28;20428;-73
2022/04/15 12:48:19;;;;;;;6.30;5.80;;;21.60;99.90;;;;;;4955603;28;20747;-73
2022/04/15 12:50:47;;;;;;;11.23;7.13;;;21.90;99.90;;;;;;4953282;29;20439;-73
2022/04/15 12:53:14;;;;;;;6.90;5.93;;;21.90;99.90;;;;;;4954058;28;20412;-73
2022/04/15 12:55:39;;;;;;;5.20;4.70;;;21.90;99.90;;;;;;4954651;28;20951;-73
2022/04/15 12:58:29;;;;;;;6.27;5.53;;;21.60;99.90;;;;;;4954192;28;20452;-73
2022/04/15 13:00:58;;;;;;;6.10;5.50;;;21.60;99.90;;;;;;4955006;28;20712;-73
2022/04/15 13:03:26;;;;;;;6.93;5.90;;;21.60;99.90;;;;;;4953098;28;20503;-73
2022/04/15 13:05:53;;;;;;;7.37;6.13;;;21.40;99.90;;;;;;4954696;28;20447;-73
2022/04/15 13:08:21;;;;;;;7.50;6.70;;;20.90;99.90;;;;;;4953989;28;20476;-73
2022/04/15 13:10:48;;;;;;;8.20;4.93;;;20.80;99.90;;;;;;4953663;28;20825;-73
2022/04/15 13:13:15;;;;;;;5.97;5.40;;;20.90;99.90;;;;;;4953964;28;20445;-74
2022/04/15 13:15:41;;;;;;;11.37;6.67;;;21.10;99.90;;;;;;4954560;28;20429;-73
2022/04/15 13:18:07;;;;;;;6.53;5.70;;;21.30;99.90;;;;;;4953116;29;20420;-73
2022/04/15 13:20:33;;;;;;;7.77;6.90;;;21.60;99.90;;;;;;4953959;28;20452;-73
2022/04/15 13:22:59;;;;;;;7.00;6.30;;;21.60;99.90;;;;;;4956494;29;20440;-73
2022/04/15 13:25:24;;;;;;;5.90;5.30;;;21.60;99.90;;;;;;4957827;28;20192;-73
2022/04/15 13:27:50;;;;;;;9.30;6.63;;;21.50;99.90;;;;;;4957585;28;20623;-73
2022/04/15 13:30:16;;;;;;;6.73;6.10;;;21.30;99.90;;;;;;4962061;28;20667;-73
2022/04/15 13:32:42;;;;;;;9.23;7.47;;;21.20;99.90;;;;;;4960844;28;20217;-74
2022/04/15 13:35:08;;;;;;;7.33;6.73;;;21.00;99.90;;;;;;4957077;28;20424;-73
2022/04/15 13:37:34;;;;;;;5.90;5.40;;;20.80;99.90;;;;;;4958974;28;20444;-73
2022/04/15 13:40:01;;;;;;;8.93;7.43;;;20.80;99.90;;;;;;4957768;29;20728;-73
2022/04/15 13:42:28;;;;;;;9.50;5.60;;;20.60;99.90;;;;;;4962198;28;20501;-73
2022/04/15 13:44:54;;;;;;;6.57;5.20;;;20.50;99.90;;;;;;4957211;29;20507;-73
2022/04/15 13:47:20;;;;;;;8.90;5.93;;;20.60;99.90;;;;;;4957959;28;20436;-74
2022/04/15 13:49:49;;;;;;;9.13;5.73;;;20.80;99.90;;;;;;4958069;28;20485;-73
2022/04/15 13:57:47;;;;;;;8.33;6.83;;;20.70;99.90;;;;;;4974321;28;21094;-73
2022/04/15 14:00:13;;;;;;;5.87;5.27;;;20.70;99.90;;;;;;4958859;28;20475;-73
2022/04/15 14:02:39;;;;;;;6.83;4.97;;;20.60;99.90;;;;;;4956404;28;20964;-73
2022/04/15 14:05:05;;;;;;;7.40;5.27;;;20.40;99.90;;;;;;4958470;28;20448;-73
2022/04/15 14:07:31;;;;;;;6.47;4.60;;;20.50;99.90;;;;;;4956804;28;20559;-73
2022/04/15 14:09:57;;;;;;;6.27;5.67;;;20.60;99.90;;;;;;4957882;28;20883;-73
2022/04/15 14:12:23;;;;;;;7.07;6.47;;;20.50;99.90;;;;;;4956147;29;20594;-73
2022/04/15 14:14:49;;;;;;;8.90;4.80;;;20.40;99.90;;;;;;4957964;28;20446;-73
2022/04/15 14:17:14;;;;;;;6.07;5.57;;;20.50;99.90;;;;;;4956384;29;20853;-73
2022/04/15 14:19:40;;;;;;;7.13;5.80;;;20.50;99.90;;;;;;4957056;28;20181;-72
2022/04/15 14:22:06;;;;;;;11.30;5.20;;;20.40;99.90;;;;;;4956770;28;20200;-73
2022/04/15 14:24:33;;;;;;;9.13;5.83;;;20.50;99.90;;;;;;4956765;28;20173;-73